KCNU

Chanute Martin Johnson Airport

Chanute, Kansas, USA
METAR KCNU 240152Z AUTO 12005KT 10SM CLR 22/21 A3006 RMK AO2 SLP170 T02220206
Observed Flight Rules
May-24 @ 01:52 UTC (17 minutes ago) Visual Flight Rules
Wind Visibility Clouds
120° at 5 knots 10 miles
  • Clear skies
Temperatures Readings
Current 22°C / 72°F
Dewpoint 21°C / 70°F
Humidity 94%
Altimeter 30.06" Hg
Pressure 1017 hPa
Elevation 297
METAR KCNU 240152Z AUTO 12005KT 10SM CLR 22/21 A3006 RMK AO2 SLP170 T02220206
Observed Flight Rules
May-24 @ 01:52 UTC
(17 minutes ago)
VFR
Wind Visibility
120° at 5 knots 10 miles
Clouds
  • Clear skies
Temperature Dewpoint
22°C / 72°F 21°C / 70°F
Humidity Altimeter Pressure
94% 30.06" Hg 1017 hPa